Hlavní strana
METAR-TAF:

METAR-TAF

Letiště :

Athens, Tennessee, Spojené státy americké

zeměpisná šířka: 35-23-50N, zeměpisná délka: 084-33-45W, výška: 262 m

Aktuální stav počasí

Zpráva byla vytvořena před 25 minutami, v 11:35 UTC
Bezvětří
Teplota 20°C
Vlhkost vzduchu 94%
Tlak 1023 hPa
Viditelnost: 8.0 km
Jasno
kouřmo

METAR: KMMI 241135Z AUTO 00000KT 5SM BR CLR 20/19 A3020 RMK A01

Čas: 07:00 (12:00 UTC)


TAF: chybějící

Stav a předpovědi počasí z více než 4 000 letišť (zprávy METAR a TAF).

Červené a žluté tečky na mapě představují dostupné meteorologické stanice.

Když kurzor umístíte na tečku, zobrazí se název stanice.

Pak kliknutím zobrazíte stav a předpověď počasí.

Chcete-li změnit mapu, kliknutím na zelené tlačítko se znaménkem +mapu přiblížíte, kliknutím na zelené tlačítko se znaménkem – mapu oddálíte a kliknutím na zelené šipky přejdete na sousední mapy.


METAR-TAF: